Wales, Michigan
Current Conditions -  °F | °C
As of 8:16 AM on Saturday 25 Oct 2014 (Local Time) from KPHN Reporting Station
Overcast Overcast  
Wind Chill: 10°   Ceiling: 3900
Heat Index: 10°   Visibility: 7mi
Dew Point:   Wind: 5mph
Humidity: 94%   Direction: 220°SW
Pressure: 29.8"   Gusts: NA
Location:  42.9446°N, 82.6827°W
Report Text: KPHN 251216Z AUTO 22004KT 7SM BKN039 OVC050 10/09 A2980 RMK AO2
Loading
Personal Weather Stations






























Interactive Weather Map
Tropical Storm Tracking
New forecast layout! Learn more

10-Day Weather Forecast

Advertisements
Track Severe Weather on mobile